sensor_id;sensor_type;location;lat;lon;timestamp;pressure;altitude;pressure_sealevel;temperature
13304;BMP280;6720;51.958;4.540;2023-07-22T00:01:35;101298.41;;;18.53
13304;BMP280;6720;51.958;4.540;2023-07-22T00:04:02;101292.28;;;18.29
13304;BMP280;6720;51.958;4.540;2023-07-22T00:06:28;101296.53;;;18.33
13304;BMP280;6720;51.958;4.540;2023-07-22T00:08:53;101292.50;;;18.46
13304;BMP280;6720;51.958;4.540;2023-07-22T00:11:19;101292.50;;;18.46
13304;BMP280;6720;51.958;4.540;2023-07-22T00:13:45;101283.59;;;18.47
13304;BMP280;6720;51.958;4.540;2023-07-22T00:16:10;101289.91;;;18.45
13304;BMP280;6720;51.958;4.540;2023-07-22T00:18:36;101285.38;;;18.47
13304;BMP280;6720;51.958;4.540;2023-07-22T00:21:02;101280.00;;;18.48
13304;BMP280;6720;51.958;4.540;2023-07-22T00:23:27;101282.94;;;18.42
13304;BMP280;6720;51.958;4.540;2023-07-22T00:25:53;101276.19;;;18.35
13304;BMP280;6720;51.958;4.540;2023-07-22T00:28:18;101278.19;;;18.29
13304;BMP280;6720;51.958;4.540;2023-07-22T00:30:43;101273.84;;;18.26
13304;BMP280;6720;51.958;4.540;2023-07-22T00:33:09;101268.44;;;18.29
13304;BMP280;6720;51.958;4.540;2023-07-22T00:35:35;101264.13;;;18.27
13304;BMP280;6720;51.958;4.540;2023-07-22T00:38:00;101271.41;;;18.22
13304;BMP280;6720;51.958;4.540;2023-07-22T00:40:27;101278.38;;;18.24
13304;BMP280;6720;51.958;4.540;2023-07-22T00:42:52;101277.50;;;18.23
13304;BMP280;6720;51.958;4.540;2023-07-22T00:45:18;101269.47;;;18.25
13304;BMP280;6720;51.958;4.540;2023-07-22T00:47:44;101272.13;;;18.25
13304;BMP280;6720;51.958;4.540;2023-07-22T00:50:09;101270.53;;;18.21
13304;BMP280;6720;51.958;4.540;2023-07-22T00:52:35;101262.53;;;18.23
13304;BMP280;6720;51.958;4.540;2023-07-22T00:55:02;101261.53;;;18.25
13304;BMP280;6720;51.958;4.540;2023-07-22T00:57:28;101263.53;;;18.20
13304;BMP280;6720;51.958;4.540;2023-07-22T00:59:54;101261.16;;;18.12
13304;BMP280;6720;51.958;4.540;2023-07-22T01:02:20;101252.44;;;18.10
13304;BMP280;6720;51.958;4.540;2023-07-22T01:04:46;101248.47;;;18.20
13304;BMP280;6720;51.958;4.540;2023-07-22T01:07:12;101252.81;;;18.23
13304;BMP280;6720;51.958;4.540;2023-07-22T01:09:38;101253.03;;;18.17
13304;BMP280;6720;51.958;4.540;2023-07-22T01:12:05;101252.66;;;18.26
13304;BMP280;6720;51.958;4.540;2023-07-22T01:14:40;101249.75;;;18.32
13304;BMP280;6720;51.958;4.540;2023-07-22T01:17:08;101250.81;;;18.28
13304;BMP280;6720;51.958;4.540;2023-07-22T01:19:34;101251.31;;;18.16
13304;BMP280;6720;51.958;4.540;2023-07-22T01:22:02;101247.84;;;18.14
13304;BMP280;6720;51.958;4.540;2023-07-22T01:24:28;101240.59;;;18.19
13304;BMP280;6720;51.958;4.540;2023-07-22T01:26:54;101245.97;;;18.17
13304;BMP280;6720;51.958;4.540;2023-07-22T01:29:21;101244.91;;;18.22
13304;BMP280;6720;51.958;4.540;2023-07-22T01:31:49;101239.53;;;18.23
13304;BMP280;6720;51.958;4.540;2023-07-22T01:34:15;101235.16;;;18.22
13304;BMP280;6720;51.958;4.540;2023-07-22T01:36:40;101230.59;;;18.26
13304;BMP280;6720;51.958;4.540;2023-07-22T01:39:06;101236.72;;;18.06
13304;BMP280;6720;51.958;4.540;2023-07-22T01:41:31;101237.41;;;17.89
13304;BMP280;6720;51.958;4.540;2023-07-22T01:43:57;101231.13;;;17.92
13304;BMP280;6720;51.958;4.540;2023-07-22T01:46:22;101233.84;;;18.12
13304;BMP280;6720;51.958;4.540;2023-07-22T01:48:48;101237.53;;;18.08
13304;BMP280;6720;51.958;4.540;2023-07-22T01:51:13;101230.13;;;18.16
13304;BMP280;6720;51.958;4.540;2023-07-22T01:53:39;101226.66;;;18.14
13304;BMP280;6720;51.958;4.540;2023-07-22T01:56:04;101215.34;;;18.10
13304;BMP280;6720;51.958;4.540;2023-07-22T01:58:30;101226.19;;;18.04
13304;BMP280;6720;51.958;4.540;2023-07-22T02:00:56;101225.47;;;18.01
13304;BMP280;6720;51.958;4.540;2023-07-22T02:03:21;101225.19;;;18.07
13304;BMP280;6720;51.958;4.540;2023-07-22T02:05:46;101218.34;;;18.01
13304;BMP280;6720;51.958;4.540;2023-07-22T02:08:12;101222.94;;;17.98
13304;BMP280;6720;51.958;4.540;2023-07-22T02:10:37;101213.63;;;17.88
13304;BMP280;6720;51.958;4.540;2023-07-22T02:13:03;101213.88;;;17.82
13304;BMP280;6720;51.958;4.540;2023-07-22T02:15:30;101217.22;;;17.87
13304;BMP280;6720;51.958;4.540;2023-07-22T02:17:55;101218.25;;;17.83
13304;BMP280;6720;51.958;4.540;2023-07-22T02:20:22;101215.09;;;17.95
13304;BMP280;6720;51.958;4.540;2023-07-22T02:22:47;101214.09;;;17.97
13304;BMP280;6720;51.958;4.540;2023-07-22T02:25:13;101215.09;;;17.95
13304;BMP280;6720;51.958;4.540;2023-07-22T02:27:40;101211.59;;;17.94
13304;BMP280;6720;51.958;4.540;2023-07-22T02:30:07;101214.94;;;17.78
13304;BMP280;6720;51.958;4.540;2023-07-22T02:32:39;101210.38;;;17.60
13304;BMP280;6720;51.958;4.540;2023-07-22T02:35:08;101204.53;;;17.52
13304;BMP280;6720;51.958;4.540;2023-07-22T02:37:36;101200.94;;;17.53
13304;BMP280;6720;51.958;4.540;2023-07-22T02:40:02;101205.31;;;17.54
13304;BMP280;6720;51.958;4.540;2023-07-22T02:42:33;101204.81;;;17.66
13304;BMP280;6720;51.958;4.540;2023-07-22T02:44:59;101207.06;;;17.55
13304;BMP280;6720;51.958;4.540;2023-07-22T02:47:25;101205.75;;;17.65
13304;BMP280;6720;51.958;4.540;2023-07-22T02:49:50;101202.16;;;17.66
13304;BMP280;6720;51.958;4.540;2023-07-22T02:52:16;101200.88;;;17.76
13304;BMP280;6720;51.958;4.540;2023-07-22T02:54:41;101206.13;;;17.77
13304;BMP280;6720;51.958;4.540;2023-07-22T02:57:07;101193.69;;;17.79
13304;BMP280;6720;51.958;4.540;2023-07-22T02:59:33;101191.88;;;17.80
13304;BMP280;6720;51.958;4.540;2023-07-22T03:01:58;101203.28;;;17.82
13304;BMP280;6720;51.958;4.540;2023-07-22T03:04:24;101195.63;;;17.74
13304;BMP280;6720;51.958;4.540;2023-07-22T03:06:49;101204.34;;;17.78
13304;BMP280;6720;51.958;4.540;2023-07-22T03:09:15;101192.16;;;17.74
13304;BMP280;6720;51.958;4.540;2023-07-22T03:11:40;101195.03;;;17.68
13304;BMP280;6720;51.958;4.540;2023-07-22T03:14:05;101199.59;;;17.64
13304;BMP280;6720;51.958;4.540;2023-07-22T03:16:31;101198.97;;;17.58
13304;BMP280;6720;51.958;4.540;2023-07-22T03:18:57;101197.25;;;17.57
13304;BMP280;6720;51.958;4.540;2023-07-22T03:21:22;101202.31;;;17.63
13304;BMP280;6720;51.958;4.540;2023-07-22T03:23:48;101202.66;;;17.54
13304;BMP280;6720;51.958;4.540;2023-07-22T03:26:14;101203.53;;;17.54
13304;BMP280;6720;51.958;4.540;2023-07-22T03:28:40;101207.72;;;17.37
13304;BMP280;6720;51.958;4.540;2023-07-22T03:31:07;101206.91;;;17.35
13304;BMP280;6720;51.958;4.540;2023-07-22T03:33:33;101210.97;;;17.45
13304;BMP280;6720;51.958;4.540;2023-07-22T03:36:00;101218.81;;;17.48
13304;BMP280;6720;51.958;4.540;2023-07-22T03:38:25;101217.22;;;17.65
13304;BMP280;6720;51.958;4.540;2023-07-22T03:40:51;101218.50;;;17.55
13304;BMP280;6720;51.958;4.540;2023-07-22T03:43:18;101216.94;;;17.50
13304;BMP280;6720;51.958;4.540;2023-07-22T03:45:44;101218.59;;;17.52
13304;BMP280;6720;51.958;4.540;2023-07-22T03:48:09;101217.72;;;17.53
13304;BMP280;6720;51.958;4.540;2023-07-22T03:50:34;101223.72;;;17.57
13304;BMP280;6720;51.958;4.540;2023-07-22T03:53:00;101220.03;;;17.61
13304;BMP280;6720;51.958;4.540;2023-07-22T03:55:26;101216.34;;;17.65
13304;BMP280;6720;51.958;4.540;2023-07-22T03:57:51;101216.22;;;17.68
13304;BMP280;6720;51.958;4.540;2023-07-22T04:00:17;101214.34;;;17.70
13304;BMP280;6720;51.958;4.540;2023-07-22T04:02:42;101213.47;;;17.71
13304;BMP280;6720;51.958;4.540;2023-07-22T04:05:08;101214.00;;;17.79
13304;BMP280;6720;51.958;4.540;2023-07-22T04:07:34;101211.34;;;17.79
13304;BMP280;6720;51.958;4.540;2023-07-22T04:09:59;101216.94;;;17.71
13304;BMP280;6720;51.958;4.540;2023-07-22T04:12:25;101211.34;;;17.79
13304;BMP280;6720;51.958;4.540;2023-07-22T04:14:50;101208.44;;;17.85
13304;BMP280;6720;51.958;4.540;2023-07-22T04:17:16;101202.31;;;17.84
13304;BMP280;6720;51.958;4.540;2023-07-22T04:19:41;101206.50;;;17.90
13304;BMP280;6720;51.958;4.540;2023-07-22T04:22:08;101202.03;;;17.90
13304;BMP280;6720;51.958;4.540;2023-07-22T04:24:33;101205.03;;;18.03
13304;BMP280;6720;51.958;4.540;2023-07-22T04:27:00;101198.97;;;18.01
13304;BMP280;6720;51.958;4.540;2023-07-22T04:29:25;101195.13;;;18.08
13304;BMP280;6720;51.958;4.540;2023-07-22T04:31:51;101190.94;;;18.02
13304;BMP280;6720;51.958;4.540;2023-07-22T04:34:16;101196.84;;;18.09
13304;BMP280;6720;51.958;4.540;2023-07-22T04:36:42;101200.03;;;18.17
13304;BMP280;6720;51.958;4.540;2023-07-22T04:39:08;101205.28;;;18.18
13304;BMP280;6720;51.958;4.540;2023-07-22T04:41:34;101206.94;;;18.21
13304;BMP280;6720;51.958;4.540;2023-07-22T04:43:59;101208.41;;;18.28
13304;BMP280;6720;51.958;4.540;2023-07-22T04:46:25;101201.44;;;18.26
13304;BMP280;6720;51.958;4.540;2023-07-22T04:48:55;101206.06;;;18.42
13304;BMP280;6720;51.958;4.540;2023-07-22T04:51:21;101208.28;;;18.31
13304;BMP280;6720;51.958;4.540;2023-07-22T04:53:46;101209.63;;;18.41
13304;BMP280;6720;51.958;4.540;2023-07-22T04:56:12;101208.91;;;18.38
13304;BMP280;6720;51.958;4.540;2023-07-22T04:58:37;101204.53;;;18.37
13304;BMP280;6720;51.958;4.540;2023-07-22T05:01:03;101201.09;;;18.33
13304;BMP280;6720;51.958;4.540;2023-07-22T05:03:29;101205.66;;;18.51
13304;BMP280;6720;51.958;4.540;2023-07-22T05:05:54;101207.66;;;18.46
13304;BMP280;6720;51.958;4.540;2023-07-22T05:08:20;101199.69;;;18.46
13304;BMP280;6720;51.958;4.540;2023-07-22T05:10:46;101198.44;;;18.33
13304;BMP280;6720;51.958;4.540;2023-07-22T05:13:11;101206.69;;;18.27
13304;BMP280;6720;51.958;4.540;2023-07-22T05:15:37;101198.75;;;18.47
13304;BMP280;6720;51.958;4.540;2023-07-22T05:18:02;101203.00;;;18.51
13304;BMP280;6720;51.958;4.540;2023-07-22T05:20:30;101201.47;;;18.46
13304;BMP280;6720;51.958;4.540;2023-07-22T05:22:56;101198.88;;;18.64
13304;BMP280;6720;51.958;4.540;2023-07-22T05:25:22;101195.84;;;18.53
13304;BMP280;6720;51.958;4.540;2023-07-22T05:27:47;101190.38;;;18.56
13304;BMP280;6720;51.958;4.540;2023-07-22T05:30:12;101200.06;;;18.77
13304;BMP280;6720;51.958;4.540;2023-07-22T05:32:39;101200.88;;;18.39
13304;BMP280;6720;51.958;4.540;2023-07-22T05:35:05;101201.25;;;18.70
13304;BMP280;6720;51.958;4.540;2023-07-22T05:37:31;101191.16;;;18.78
13304;BMP280;6720;51.958;4.540;2023-07-22T05:39:56;101185.16;;;18.93
13304;BMP280;6720;51.958;4.540;2023-07-22T05:42:22;101183.50;;;19.09
13304;BMP280;6720;51.958;4.540;2023-07-22T05:44:50;101193.56;;;18.84
13304;BMP280;6720;51.958;4.540;2023-07-22T05:47:15;101183.31;;;18.95
13304;BMP280;6720;51.958;4.540;2023-07-22T05:49:40;101188.69;;;18.94
13304;BMP280;6720;51.958;4.540;2023-07-22T05:52:06;101186.03;;;19.12
13304;BMP280;6720;51.958;4.540;2023-07-22T05:54:31;101188.94;;;19.26
13304;BMP280;6720;51.958;4.540;2023-07-22T05:56:57;101189.56;;;19.13
13304;BMP280;6720;51.958;4.540;2023-07-22T05:59:22;101188.56;;;19.15
13304;BMP280;6720;51.958;4.540;2023-07-22T06:01:48;101191.28;;;18.95
13304;BMP280;6720;51.958;4.540;2023-07-22T06:04:13;101187.41;;;19.21
13304;BMP280;6720;51.958;4.540;2023-07-22T06:06:39;101188.25;;;19.03
13304;BMP280;6720;51.958;4.540;2023-07-22T06:09:04;101193.03;;;19.33
13304;BMP280;6720;51.958;4.540;2023-07-22T06:11:30;101198.91;;;19.40
13304;BMP280;6720;51.958;4.540;2023-07-22T06:13:55;101184.69;;;19.41
13304;BMP280;6720;51.958;4.540;2023-07-22T06:16:21;101178.69;;;19.37
13304;BMP280;6720;51.958;4.540;2023-07-22T06:18:46;101181.44;;;19.53
13304;BMP280;6720;51.958;4.540;2023-07-22T06:21:11;101181.38;;;19.54
13304;BMP280;6720;51.958;4.540;2023-07-22T06:23:37;101186.97;;;19.67
13304;BMP280;6720;51.958;4.540;2023-07-22T06:26:02;101187.97;;;19.64
13304;BMP280;6720;51.958;4.540;2023-07-22T06:28:28;101185.81;;;19.72
13304;BMP280;6720;51.958;4.540;2023-07-22T06:30:53;101186.03;;;19.32
13304;BMP280;6720;51.958;4.540;2023-07-22T06:33:18;101181.09;;;19.60
13304;BMP280;6720;51.958;4.540;2023-07-22T06:35:44;101177.53;;;19.43
13304;BMP280;6720;51.958;4.540;2023-07-22T06:38:09;101171.66;;;19.36
13304;BMP280;6720;51.958;4.540;2023-07-22T06:40:35;101174.06;;;19.59
13304;BMP280;6720;51.958;4.540;2023-07-22T06:43:00;101176.31;;;19.85
13304;BMP280;6720;51.958;4.540;2023-07-22T06:45:25;101180.97;;;19.80
13304;BMP280;6720;51.958;4.540;2023-07-22T06:47:51;101174.13;;;19.93
13304;BMP280;6720;51.958;4.540;2023-07-22T06:50:16;101173.59;;;19.87
13304;BMP280;6720;51.958;4.540;2023-07-22T06:52:42;101177.41;;;19.98
13304;BMP280;6720;51.958;4.540;2023-07-22T06:55:08;101171.56;;;19.73
13304;BMP280;6720;51.958;4.540;2023-07-22T06:57:33;101169.66;;;19.77
13304;BMP280;6720;51.958;4.540;2023-07-22T06:59:59;101175.69;;;19.97
13304;BMP280;6720;51.958;4.540;2023-07-22T07:02:26;101177.88;;;19.89
13304;BMP280;6720;51.958;4.540;2023-07-22T07:04:52;101176.38;;;19.48
13304;BMP280;6720;51.958;4.540;2023-07-22T07:07:17;101178.47;;;19.77
13304;BMP280;6720;51.958;4.540;2023-07-22T07:09:42;101183.94;;;19.74
13304;BMP280;6720;51.958;4.540;2023-07-22T07:12:08;101182.56;;;20.01
13304;BMP280;6720;51.958;4.540;2023-07-22T07:14:34;101183.78;;;20.30
13304;BMP280;6720;51.958;4.540;2023-07-22T07:17:01;101191.34;;;20.37
13304;BMP280;6720;51.958;4.540;2023-07-22T07:19:27;101188.94;;;20.16
13304;BMP280;6720;51.958;4.540;2023-07-22T07:21:52;101183.78;;;20.30
13304;BMP280;6720;51.958;4.540;2023-07-22T07:24:18;101183.72;;;20.31
13304;BMP280;6720;51.958;4.540;2023-07-22T07:26:43;101184.28;;;20.21
13304;BMP280;6720;51.958;4.540;2023-07-22T07:29:09;101181.81;;;20.33
13304;BMP280;6720;51.958;4.540;2023-07-22T07:31:35;101179.00;;;20.36
13304;BMP280;6720;51.958;4.540;2023-07-22T07:34:00;101175.72;;;20.31
13304;BMP280;6720;51.958;4.540;2023-07-22T07:36:26;101179.75;;;20.55
13304;BMP280;6720;51.958;4.540;2023-07-22T07:38:51;101172.94;;;20.67
13304;BMP280;6720;51.958;4.540;2023-07-22T07:41:17;101178.25;;;20.34
13304;BMP280;6720;51.958;4.540;2023-07-22T07:43:42;101172.28;;;20.79
13304;BMP280;6720;51.958;4.540;2023-07-22T07:46:27;101173.53;;;20.89
13304;BMP280;6720;51.958;4.540;2023-07-22T07:48:54;101177.69;;;20.77
13304;BMP280;6720;51.958;4.540;2023-07-22T07:51:22;101171.41;;;20.95
13304;BMP280;6720;51.958;4.540;2023-07-22T07:53:48;101169.13;;;21.20
13304;BMP280;6720;51.958;4.540;2023-07-22T07:56:14;101163.63;;;20.91
13304;BMP280;6720;51.958;4.540;2023-07-22T07:58:40;101163.03;;;21.18
13304;BMP280;6720;51.958;4.540;2023-07-22T08:01:06;101168.09;;;21.23
13304;BMP280;6720;51.958;4.540;2023-07-22T08:03:33;101164.75;;;21.35
13304;BMP280;6720;51.958;4.540;2023-07-22T08:06:00;101170.19;;;21.49
13304;BMP280;6720;51.958;4.540;2023-07-22T08:08:26;101178.13;;;21.18
13304;BMP280;6720;51.958;4.540;2023-07-22T08:11:08;101166.19;;;20.77
13304;BMP280;6720;51.958;4.540;2023-07-22T08:13:34;101170.75;;;21.38
13304;BMP280;6720;51.958;4.540;2023-07-22T08:16:03;101170.09;;;21.35
13304;BMP280;6720;51.958;4.540;2023-07-22T08:18:30;101164.84;;;21.33
13304;BMP280;6720;51.958;4.540;2023-07-22T08:20:55;101168.44;;;21.64
13304;BMP280;6720;51.958;4.540;2023-07-22T08:23:21;101165.47;;;21.99
13304;BMP280;6720;51.958;4.540;2023-07-22T08:25:47;101162.75;;;22.15
13304;BMP280;6720;51.958;4.540;2023-07-22T08:28:13;101163.25;;;21.92
13304;BMP280;6720;51.958;4.540;2023-07-22T08:30:39;101169.03;;;22.14
13304;BMP280;6720;51.958;4.540;2023-07-22T08:33:06;101171.78;;;21.83
13304;BMP280;6720;51.958;4.540;2023-07-22T08:35:34;101171.13;;;22.09
13304;BMP280;6720;51.958;4.540;2023-07-22T08:38:00;101163.97;;;22.39
13304;BMP280;6720;51.958;4.540;2023-07-22T08:40:25;101162.63;;;22.02
13304;BMP280;6720;51.958;4.540;2023-07-22T08:42:51;101157.53;;;21.68
13304;BMP280;6720;51.958;4.540;2023-07-22T08:45:17;101162.13;;;21.96
13304;BMP280;6720;51.958;4.540;2023-07-22T08:47:49;101159.81;;;21.90
13304;BMP280;6720;51.958;4.540;2023-07-22T08:50:19;101159.38;;;22.27
13304;BMP280;6720;51.958;4.540;2023-07-22T08:52:46;101147.63;;;21.70
13304;BMP280;6720;51.958;4.540;2023-07-22T08:55:13;101158.28;;;21.70
13304;BMP280;6720;51.958;4.540;2023-07-22T08:57:39;101158.94;;;22.05
13304;BMP280;6720;51.958;4.540;2023-07-22T09:00:06;101160.41;;;21.95
13304;BMP280;6720;51.958;4.540;2023-07-22T09:02:35;101157.28;;;22.32
13304;BMP280;6720;51.958;4.540;2023-07-22T09:05:02;101172.97;;;22.22
13304;BMP280;6720;51.958;4.540;2023-07-22T09:07:28;101167.97;;;22.02
13304;BMP280;6720;51.958;4.540;2023-07-22T09:09:54;101172.28;;;22.19
13304;BMP280;6720;51.958;4.540;2023-07-22T09:12:21;101166.69;;;22.53
13304;BMP280;6720;51.958;4.540;2023-07-22T09:14:48;101159.16;;;22.30
13304;BMP280;6720;51.958;4.540;2023-07-22T09:17:14;101156.41;;;22.75
13304;BMP280;6720;51.958;4.540;2023-07-22T09:19:40;101151.16;;;22.87
13304;BMP280;6720;51.958;4.540;2023-07-22T09:22:07;101143.00;;;23.31
13304;BMP280;6720;51.958;4.540;2023-07-22T09:24:32;101148.13;;;23.48
13304;BMP280;6720;51.958;4.540;2023-07-22T09:26:58;101140.84;;;23.23
13304;BMP280;6720;51.958;4.540;2023-07-22T09:29:38;101145.72;;;23.03
13304;BMP280;6720;51.958;4.540;2023-07-22T09:32:05;101149.75;;;22.68
13304;BMP280;6720;51.958;4.540;2023-07-22T09:34:31;101151.66;;;22.80
13304;BMP280;6720;51.958;4.540;2023-07-22T09:36:58;101157.66;;;22.55
13304;BMP280;6720;51.958;4.540;2023-07-22T09:39:26;101153.88;;;22.44
13304;BMP280;6720;51.958;4.540;2023-07-22T09:41:52;101152.56;;;22.51
13304;BMP280;6720;51.958;4.540;2023-07-22T09:44:21;101146.81;;;22.43
13304;BMP280;6720;51.958;4.540;2023-07-22T09:46:49;101147.81;;;22.70
13304;BMP280;6720;51.958;4.540;2023-07-22T09:49:16;101144.94;;;22.15
13304;BMP280;6720;51.958;4.540;2023-07-22T09:51:42;101155.44;;;22.18
13304;BMP280;6720;51.958;4.540;2023-07-22T09:54:08;101174.19;;;21.87
13304;BMP280;6720;51.958;4.540;2023-07-22T09:56:45;101158.44;;;21.98
13304;BMP280;6720;51.958;4.540;2023-07-22T09:59:11;101154.25;;;22.08
13304;BMP280;6720;51.958;4.540;2023-07-22T10:01:40;101150.53;;;22.40
13304;BMP280;6720;51.958;4.540;2023-07-22T10:04:06;101151.03;;;21.88
13304;BMP280;6720;51.958;4.540;2023-07-22T10:06:33;101157.72;;;22.54
13304;BMP280;6720;51.958;4.540;2023-07-22T10:09:02;101159.56;;;22.24
13304;BMP280;6720;51.958;4.540;2023-07-22T10:11:29;101164.50;;;22.30
13304;BMP280;6720;51.958;4.540;2023-07-22T10:13:55;101168.06;;;22.01
13304;BMP280;6720;51.958;4.540;2023-07-22T10:16:22;101169.09;;;21.98
13304;BMP280;6720;51.958;4.540;2023-07-22T10:18:48;101164.66;;;21.68
13304;BMP280;6720;51.958;4.540;2023-07-22T10:21:14;101152.16;;;21.84
13304;BMP280;6720;51.958;4.540;2023-07-22T10:23:40;101174.22;;;21.72
13304;BMP280;6720;51.958;4.540;2023-07-22T10:26:06;101173.22;;;22.04
13304;BMP280;6720;51.958;4.540;2023-07-22T10:28:32;101179.97;;;21.80
13304;BMP280;6720;51.958;4.540;2023-07-22T10:30:58;101174.03;;;21.75
13304;BMP280;6720;51.958;4.540;2023-07-22T10:33:24;101172.22;;;21.60
13304;BMP280;6720;51.958;4.540;2023-07-22T10:36:13;101174.47;;;21.83
13304;BMP280;6720;51.958;4.540;2023-07-22T10:38:39;101175.22;;;21.53
13304;BMP280;6720;51.958;4.540;2023-07-22T10:41:16;101173.97;;;21.76
13304;BMP280;6720;51.958;4.540;2023-07-22T10:43:43;101167.94;;;21.73
13304;BMP280;6720;51.958;4.540;2023-07-22T10:46:30;101175.94;;;21.73
13304;BMP280;6720;51.958;4.540;2023-07-22T10:49:06;101178.25;;;21.79
13304;BMP280;6720;51.958;4.540;2023-07-22T10:51:35;101158.75;;;22.08
13304;BMP280;6720;51.958;4.540;2023-07-22T10:54:01;101171.19;;;22.37
13304;BMP280;6720;51.958;4.540;2023-07-22T10:56:26;101171.75;;;22.28
13304;BMP280;6720;51.958;4.540;2023-07-22T11:06:57;101158.25;;;22.45
13304;BMP280;6720;51.958;4.540;2023-07-22T11:11:56;101156.03;;;22.53
13304;BMP280;6720;51.958;4.540;2023-07-22T11:14:25;101159.81;;;22.49
13304;BMP280;6720;51.958;4.540;2023-07-22T11:16:51;101145.81;;;22.59
13304;BMP280;6720;51.958;4.540;2023-07-22T11:19:19;101148.19;;;22.50
13304;BMP280;6720;51.958;4.540;2023-07-22T11:21:47;101156.09;;;22.65
13304;BMP280;6720;51.958;4.540;2023-07-22T11:24:15;101156.22;;;22.34
13304;BMP280;6720;51.958;4.540;2023-07-22T11:26:41;101150.41;;;22.28
13304;BMP280;6720;51.958;4.540;2023-07-22T11:29:08;101153.47;;;22.36
13304;BMP280;6720;51.958;4.540;2023-07-22T11:31:38;101145.53;;;22.50
13304;BMP280;6720;51.958;4.540;2023-07-22T11:34:15;101140.56;;;22.58
13304;BMP280;6720;51.958;4.540;2023-07-22T11:36:41;101148.88;;;22.67
13304;BMP280;6720;51.958;4.540;2023-07-22T11:39:13;101144.06;;;22.44
13304;BMP280;6720;51.958;4.540;2023-07-22T11:41:40;101150.44;;;22.42
13304;BMP280;6720;51.958;4.540;2023-07-22T11:44:10;101141.94;;;22.35
13304;BMP280;6720;51.958;4.540;2023-07-22T11:46:58;101143.91;;;22.18
13304;BMP280;6720;51.958;4.540;2023-07-22T11:49:46;101146.81;;;22.43
13304;BMP280;6720;51.958;4.540;2023-07-22T11:52:16;101152.88;;;22.17
13304;BMP280;6720;51.958;4.540;2023-07-22T11:54:46;101154.25;;;22.08
13304;BMP280;6720;51.958;4.540;2023-07-22T11:57:19;101148.28;;;21.89
13304;BMP280;6720;51.958;4.540;2023-07-22T11:59:47;101155.63;;;21.86
13304;BMP280;6720;51.958;4.540;2023-07-22T12:02:17;101157.94;;;21.61
13304;BMP280;6720;51.958;4.540;2023-07-22T12:04:51;101157.28;;;21.57
13304;BMP280;6720;51.958;4.540;2023-07-22T12:07:33;101164.47;;;21.71
13304;BMP280;6720;51.958;4.540;2023-07-22T12:10:01;101165.50;;;21.68
13304;BMP280;6720;51.958;4.540;2023-07-22T12:12:39;101162.94;;;21.67
13304;BMP280;6720;51.958;4.540;2023-07-22T12:15:12;101163.28;;;21.61
13304;BMP280;6720;51.958;4.540;2023-07-22T12:17:46;101156.59;;;21.38
13304;BMP280;6720;51.958;4.540;2023-07-22T12:20:12;101162.44;;;21.13
13304;BMP280;6720;51.958;4.540;2023-07-22T12:22:38;101163.13;;;21.32
13304;BMP280;6720;51.958;4.540;2023-07-22T12:25:03;101161.59;;;21.28
13304;BMP280;6720;51.958;4.540;2023-07-22T12:27:29;101155.78;;;21.20
13304;BMP280;6720;51.958;4.540;2023-07-22T12:29:54;101159.78;;;21.13
13304;BMP280;6720;51.958;4.540;2023-07-22T12:32:19;101162.59;;;21.26
13304;BMP280;6720;51.958;4.540;2023-07-22T12:34:45;101155.56;;;21.40
13304;BMP280;6720;51.958;4.540;2023-07-22T12:37:10;101150.06;;;21.43
13304;BMP280;6720;51.958;4.540;2023-07-22T12:39:36;101153.31;;;21.48
13304;BMP280;6720;51.958;4.540;2023-07-22T12:42:01;101144.56;;;21.15
13304;BMP280;6720;51.958;4.540;2023-07-22T12:44:26;101164.34;;;21.27
13304;BMP280;6720;51.958;4.540;2023-07-22T12:46:52;101164.81;;;21.18
13304;BMP280;6720;51.958;4.540;2023-07-22T12:49:18;101164.47;;;21.08
13304;BMP280;6720;51.958;4.540;2023-07-22T12:51:44;101154.50;;;20.96
13304;BMP280;6720;51.958;4.540;2023-07-22T12:54:09;101157.47;;;21.23
13304;BMP280;6720;51.958;4.540;2023-07-22T12:56:35;101153.91;;;21.22
13304;BMP280;6720;51.958;4.540;2023-07-22T12:59:00;101153.66;;;21.42
13304;BMP280;6720;51.958;4.540;2023-07-22T13:01:25;101158.28;;;21.54
13304;BMP280;6720;51.958;4.540;2023-07-22T13:03:51;101166.72;;;21.78
13304;BMP280;6720;51.958;4.540;2023-07-22T13:06:16;101160.53;;;21.46
13304;BMP280;6720;51.958;4.540;2023-07-22T13:08:42;101155.97;;;21.48
13304;BMP280;6720;51.958;4.540;2023-07-22T13:11:07;101149.88;;;21.46
13304;BMP280;6720;51.958;4.540;2023-07-22T13:13:32;101157.44;;;21.54
13304;BMP280;6720;51.958;4.540;2023-07-22T13:15:58;101155.81;;;21.52
13304;BMP280;6720;51.958;4.540;2023-07-22T13:18:23;101151.25;;;21.22
13304;BMP280;6720;51.958;4.540;2023-07-22T13:20:49;101143.78;;;21.13
13304;BMP280;6720;51.958;4.540;2023-07-22T13:23:14;101146.94;;;21.35
13304;BMP280;6720;51.958;4.540;2023-07-22T13:25:40;101138.44;;;21.44
13304;BMP280;6720;51.958;4.540;2023-07-22T13:28:05;101141.94;;;21.61
13304;BMP280;6720;51.958;4.540;2023-07-22T13:30:30;101141.63;;;21.67
13304;BMP280;6720;51.958;4.540;2023-07-22T13:32:56;101135.69;;;21.77
13304;BMP280;6720;51.958;4.540;2023-07-22T13:35:22;101131.97;;;21.80
13304;BMP280;6720;51.958;4.540;2023-07-22T13:37:47;101118.00;;;22.20
13304;BMP280;6720;51.958;4.540;2023-07-22T13:40:13;101118.38;;;22.14
13304;BMP280;6720;51.958;4.540;2023-07-22T13:42:38;101121.81;;;22.30
13304;BMP280;6720;51.958;4.540;2023-07-22T13:45:04;101118.72;;;22.65
13304;BMP280;6720;51.958;4.540;2023-07-22T13:47:30;101112.38;;;22.68
13304;BMP280;6720;51.958;4.540;2023-07-22T13:49:56;101111.88;;;22.18
13304;BMP280;6720;51.958;4.540;2023-07-22T13:52:21;101115.69;;;22.14
13304;BMP280;6720;51.958;4.540;2023-07-22T13:54:46;101108.25;;;21.75
13304;BMP280;6720;51.958;4.540;2023-07-22T13:57:12;101103.06;;;21.88
13304;BMP280;6720;51.958;4.540;2023-07-22T13:59:37;101101.00;;;21.93
13304;BMP280;6720;51.958;4.540;2023-07-22T14:02:03;101104.31;;;21.67
13304;BMP280;6720;51.958;4.540;2023-07-22T14:04:30;101097.06;;;21.69
13304;BMP280;6720;51.958;4.540;2023-07-22T14:06:56;101102.56;;;21.66
13304;BMP280;6720;51.958;4.540;2023-07-22T14:09:22;101099.25;;;21.92
13304;BMP280;6720;51.958;4.540;2023-07-22T14:11:47;101101.44;;;21.70
13304;BMP280;6720;51.958;4.540;2023-07-22T14:14:13;101102.94;;;21.44
13304;BMP280;6720;51.958;4.540;2023-07-22T14:16:38;101103.28;;;21.53